sensor_id;sensor_type;location;lat;lon;timestamp;temperature;humidity
16838;DHT22;19510;54.486;9.046;2023-03-19T00:02:18;10.70;99.90
16838;DHT22;19510;54.486;9.046;2023-03-19T00:04:45;10.60;99.90
16838;DHT22;19510;54.486;9.046;2023-03-19T00:07:11;10.60;99.90
16838;DHT22;19510;54.486;9.046;2023-03-19T00:09:37;10.60;99.90
16838;DHT22;19510;54.486;9.046;2023-03-19T00:12:03;10.60;99.90
16838;DHT22;19510;54.486;9.046;2023-03-19T00:14:29;10.50;99.90
16838;DHT22;19510;54.486;9.046;2023-03-19T00:16:55;10.50;99.90
16838;DHT22;19510;54.486;9.046;2023-03-19T00:19:21;10.50;99.90
16838;DHT22;19510;54.486;9.046;2023-03-19T00:21:47;10.50;99.90
16838;DHT22;19510;54.486;9.046;2023-03-19T00:24:13;10.50;99.90
16838;DHT22;19510;54.486;9.046;2023-03-19T00:26:40;10.50;99.90
16838;DHT22;19510;54.486;9.046;2023-03-19T00:29:06;10.50;99.90
16838;DHT22;19510;54.486;9.046;2023-03-19T00:31:32;10.40;99.90
16838;DHT22;19510;54.486;9.046;2023-03-19T00:33:59;10.40;99.90
16838;DHT22;19510;54.486;9.046;2023-03-19T00:36:26;10.40;99.90
16838;DHT22;19510;54.486;9.046;2023-03-19T00:38:52;10.40;99.90
16838;DHT22;19510;54.486;9.046;2023-03-19T00:41:18;10.30;99.90
16838;DHT22;19510;54.486;9.046;2023-03-19T00:43:45;10.30;99.90
16838;DHT22;19510;54.486;9.046;2023-03-19T00:46:11;10.30;99.90
16838;DHT22;19510;54.486;9.046;2023-03-19T00:48:37;10.30;99.90
16838;DHT22;19510;54.486;9.046;2023-03-19T00:51:04;10.30;99.90
16838;DHT22;19510;54.486;9.046;2023-03-19T00:53:31;10.20;99.90
16838;DHT22;19510;54.486;9.046;2023-03-19T00:55:57;10.20;99.90
16838;DHT22;19510;54.486;9.046;2023-03-19T00:58:23;10.20;99.90
16838;DHT22;19510;54.486;9.046;2023-03-19T01:00:52;10.20;99.90
16838;DHT22;19510;54.486;9.046;2023-03-19T01:03:18;10.10;99.90
16838;DHT22;19510;54.486;9.046;2023-03-19T01:05:47;10.20;99.90
16838;DHT22;19510;54.486;9.046;2023-03-19T01:08:14;10.20;99.90
16838;DHT22;19510;54.486;9.046;2023-03-19T01:10:39;10.10;99.90
16838;DHT22;19510;54.486;9.046;2023-03-19T01:13:05;10.10;99.90
16838;DHT22;19510;54.486;9.046;2023-03-19T01:15:37;10.10;99.90
16838;DHT22;19510;54.486;9.046;2023-03-19T01:18:03;10.00;99.90
16838;DHT22;19510;54.486;9.046;2023-03-19T01:20:29;10.00;99.90
16838;DHT22;19510;54.486;9.046;2023-03-19T01:22:55;10.10;99.90
16838;DHT22;19510;54.486;9.046;2023-03-19T01:25:21;10.00;99.90
16838;DHT22;19510;54.486;9.046;2023-03-19T01:27:50;10.00;99.90
16838;DHT22;19510;54.486;9.046;2023-03-19T01:30:17;10.00;99.90
16838;DHT22;19510;54.486;9.046;2023-03-19T01:32:43;10.00;99.90
16838;DHT22;19510;54.486;9.046;2023-03-19T01:35:09;9.90;99.90
16838;DHT22;19510;54.486;9.046;2023-03-19T01:37:35;10.00;99.90
16838;DHT22;19510;54.486;9.046;2023-03-19T01:40:02;9.90;99.90
16838;DHT22;19510;54.486;9.046;2023-03-19T01:42:28;10.00;99.90
16838;DHT22;19510;54.486;9.046;2023-03-19T01:44:54;9.90;99.90
16838;DHT22;19510;54.486;9.046;2023-03-19T01:47:34;9.90;99.90
16838;DHT22;19510;54.486;9.046;2023-03-19T01:50:00;9.90;99.90
16838;DHT22;19510;54.486;9.046;2023-03-19T01:52:28;9.90;99.90
16838;DHT22;19510;54.486;9.046;2023-03-19T01:54:58;9.90;99.90
16838;DHT22;19510;54.486;9.046;2023-03-19T01:57:24;9.90;99.90
16838;DHT22;19510;54.486;9.046;2023-03-19T01:59:56;9.90;99.90
16838;DHT22;19510;54.486;9.046;2023-03-19T02:02:29;9.80;99.90
16838;DHT22;19510;54.486;9.046;2023-03-19T02:05:06;9.80;99.90
16838;DHT22;19510;54.486;9.046;2023-03-19T02:07:34;9.80;99.90
16838;DHT22;19510;54.486;9.046;2023-03-19T02:10:03;9.80;99.90
16838;DHT22;19510;54.486;9.046;2023-03-19T02:12:30;9.80;99.90
16838;DHT22;19510;54.486;9.046;2023-03-19T02:14:56;9.80;99.90
16838;DHT22;19510;54.486;9.046;2023-03-19T02:17:22;9.80;99.90
16838;DHT22;19510;54.486;9.046;2023-03-19T02:19:49;9.70;99.90
16838;DHT22;19510;54.486;9.046;2023-03-19T02:22:22;9.70;99.90
16838;DHT22;19510;54.486;9.046;2023-03-19T02:27:29;9.70;99.90
16838;DHT22;19510;54.486;9.046;2023-03-19T02:29:55;9.70;99.90
16838;DHT22;19510;54.486;9.046;2023-03-19T02:32:21;9.60;99.90
16838;DHT22;19510;54.486;9.046;2023-03-19T02:34:47;9.60;99.90
16838;DHT22;19510;54.486;9.046;2023-03-19T02:37:22;9.60;99.90
16838;DHT22;19510;54.486;9.046;2023-03-19T02:39:56;9.60;99.90
16838;DHT22;19510;54.486;9.046;2023-03-19T02:42:27;9.50;99.90
16838;DHT22;19510;54.486;9.046;2023-03-19T02:44:53;9.50;99.90
16838;DHT22;19510;54.486;9.046;2023-03-19T02:47:19;9.50;99.90
16838;DHT22;19510;54.486;9.046;2023-03-19T02:49:45;9.50;99.90
16838;DHT22;19510;54.486;9.046;2023-03-19T02:52:11;9.50;99.90
16838;DHT22;19510;54.486;9.046;2023-03-19T02:54:36;9.50;99.90
16838;DHT22;19510;54.486;9.046;2023-03-19T02:57:02;9.50;99.90
16838;DHT22;19510;54.486;9.046;2023-03-19T02:59:28;9.40;99.90
16838;DHT22;19510;54.486;9.046;2023-03-19T03:01:56;9.40;99.90
16838;DHT22;19510;54.486;9.046;2023-03-19T03:04:22;9.40;99.90
16838;DHT22;19510;54.486;9.046;2023-03-19T03:06:47;9.50;99.90
16838;DHT22;19510;54.486;9.046;2023-03-19T03:09:13;9.40;99.90
16838;DHT22;19510;54.486;9.046;2023-03-19T03:11:39;9.50;99.90
16838;DHT22;19510;54.486;9.046;2023-03-19T03:14:08;9.50;99.90
16838;DHT22;19510;54.486;9.046;2023-03-19T03:16:34;9.50;99.90
16838;DHT22;19510;54.486;9.046;2023-03-19T03:18:59;9.50;99.90
16838;DHT22;19510;54.486;9.046;2023-03-19T03:21:26;9.50;99.90
16838;DHT22;19510;54.486;9.046;2023-03-19T03:23:52;9.50;99.90
16838;DHT22;19510;54.486;9.046;2023-03-19T03:26:18;9.50;99.90
16838;DHT22;19510;54.486;9.046;2023-03-19T03:28:44;9.50;99.90
16838;DHT22;19510;54.486;9.046;2023-03-19T03:31:10;9.50;99.90
16838;DHT22;19510;54.486;9.046;2023-03-19T03:33:38;9.50;99.90
16838;DHT22;19510;54.486;9.046;2023-03-19T03:36:04;9.50;99.90
16838;DHT22;19510;54.486;9.046;2023-03-19T03:38:29;9.50;99.90
16838;DHT22;19510;54.486;9.046;2023-03-19T03:40:57;9.40;99.90
16838;DHT22;19510;54.486;9.046;2023-03-19T03:43:24;9.40;99.90
16838;DHT22;19510;54.486;9.046;2023-03-19T03:45:50;9.40;99.90
16838;DHT22;19510;54.486;9.046;2023-03-19T03:48:16;9.40;99.90
16838;DHT22;19510;54.486;9.046;2023-03-19T03:50:42;9.40;99.90
16838;DHT22;19510;54.486;9.046;2023-03-19T03:53:09;9.30;99.90
16838;DHT22;19510;54.486;9.046;2023-03-19T03:55:36;9.30;99.90
16838;DHT22;19510;54.486;9.046;2023-03-19T03:58:02;9.40;99.90
16838;DHT22;19510;54.486;9.046;2023-03-19T04:00:27;9.40;99.90
16838;DHT22;19510;54.486;9.046;2023-03-19T04:02:53;9.40;99.90
16838;DHT22;19510;54.486;9.046;2023-03-19T04:05:20;9.40;99.90
16838;DHT22;19510;54.486;9.046;2023-03-19T04:07:46;9.40;99.90
16838;DHT22;19510;54.486;9.046;2023-03-19T04:10:12;9.50;99.90
16838;DHT22;19510;54.486;9.046;2023-03-19T04:12:38;9.50;99.90
16838;DHT22;19510;54.486;9.046;2023-03-19T04:15:06;9.50;99.90
16838;DHT22;19510;54.486;9.046;2023-03-19T04:17:33;9.50;99.90
16838;DHT22;19510;54.486;9.046;2023-03-19T04:20:02;9.60;99.90
16838;DHT22;19510;54.486;9.046;2023-03-19T04:22:29;9.60;99.90
16838;DHT22;19510;54.486;9.046;2023-03-19T04:24:56;9.60;99.90
16838;DHT22;19510;54.486;9.046;2023-03-19T04:27:21;9.60;99.90
16838;DHT22;19510;54.486;9.046;2023-03-19T04:29:47;9.60;99.90
16838;DHT22;19510;54.486;9.046;2023-03-19T04:32:13;9.60;99.90
16838;DHT22;19510;54.486;9.046;2023-03-19T04:34:39;9.70;99.90
16838;DHT22;19510;54.486;9.046;2023-03-19T04:37:07;9.70;99.90
16838;DHT22;19510;54.486;9.046;2023-03-19T04:39:35;9.70;99.90
16838;DHT22;19510;54.486;9.046;2023-03-19T04:42:01;9.70;99.90
16838;DHT22;19510;54.486;9.046;2023-03-19T04:44:28;9.70;99.90
16838;DHT22;19510;54.486;9.046;2023-03-19T04:46:55;9.70;99.90
16838;DHT22;19510;54.486;9.046;2023-03-19T04:49:21;9.70;99.90
16838;DHT22;19510;54.486;9.046;2023-03-19T04:51:47;9.80;99.90
16838;DHT22;19510;54.486;9.046;2023-03-19T04:54:12;9.80;99.90
16838;DHT22;19510;54.486;9.046;2023-03-19T04:56:38;9.80;99.90
16838;DHT22;19510;54.486;9.046;2023-03-19T04:59:04;9.90;99.90
16838;DHT22;19510;54.486;9.046;2023-03-19T05:01:31;9.80;99.90
16838;DHT22;19510;54.486;9.046;2023-03-19T05:03:59;9.80;99.90
16838;DHT22;19510;54.486;9.046;2023-03-19T05:06:25;9.80;99.90
16838;DHT22;19510;54.486;9.046;2023-03-19T05:08:52;9.90;99.90
16838;DHT22;19510;54.486;9.046;2023-03-19T05:11:18;9.90;99.90
16838;DHT22;19510;54.486;9.046;2023-03-19T05:13:43;9.90;99.90
16838;DHT22;19510;54.486;9.046;2023-03-19T05:16:10;9.90;99.90
16838;DHT22;19510;54.486;9.046;2023-03-19T05:18:38;9.90;99.90
16838;DHT22;19510;54.486;9.046;2023-03-19T05:21:04;9.90;99.90
16838;DHT22;19510;54.486;9.046;2023-03-19T05:23:30;9.90;99.90
16838;DHT22;19510;54.486;9.046;2023-03-19T05:25:59;9.90;99.90
16838;DHT22;19510;54.486;9.046;2023-03-19T05:28:28;9.90;99.90
16838;DHT22;19510;54.486;9.046;2023-03-19T05:30:54;9.90;99.90
16838;DHT22;19510;54.486;9.046;2023-03-19T05:33:21;9.80;99.90
16838;DHT22;19510;54.486;9.046;2023-03-19T05:35:47;9.90;99.90
16838;DHT22;19510;54.486;9.046;2023-03-19T05:38:13;9.80;99.90
16838;DHT22;19510;54.486;9.046;2023-03-19T05:40:39;9.80;99.90
16838;DHT22;19510;54.486;9.046;2023-03-19T05:43:07;9.80;99.90
16838;DHT22;19510;54.486;9.046;2023-03-19T05:45:34;9.80;99.90
16838;DHT22;19510;54.486;9.046;2023-03-19T05:48:00;9.90;99.90
16838;DHT22;19510;54.486;9.046;2023-03-19T05:50:26;9.90;99.90
16838;DHT22;19510;54.486;9.046;2023-03-19T05:52:52;9.90;99.90
16838;DHT22;19510;54.486;9.046;2023-03-19T05:55:18;9.90;99.90
16838;DHT22;19510;54.486;9.046;2023-03-19T05:57:44;9.90;99.90
16838;DHT22;19510;54.486;9.046;2023-03-19T06:00:10;9.90;99.90
16838;DHT22;19510;54.486;9.046;2023-03-19T06:02:38;9.90;99.90
16838;DHT22;19510;54.486;9.046;2023-03-19T06:05:04;9.90;99.90
16838;DHT22;19510;54.486;9.046;2023-03-19T06:07:30;9.90;99.90
16838;DHT22;19510;54.486;9.046;2023-03-19T06:09:56;9.90;99.90
16838;DHT22;19510;54.486;9.046;2023-03-19T06:12:22;9.90;99.90
16838;DHT22;19510;54.486;9.046;2023-03-19T06:14:49;9.90;99.90
16838;DHT22;19510;54.486;9.046;2023-03-19T06:17:15;9.90;99.90
16838;DHT22;19510;54.486;9.046;2023-03-19T06:19:40;9.90;99.90
16838;DHT22;19510;54.486;9.046;2023-03-19T06:22:09;9.90;99.90
16838;DHT22;19510;54.486;9.046;2023-03-19T06:24:35;9.90;99.90
16838;DHT22;19510;54.486;9.046;2023-03-19T06:27:01;9.90;99.90
16838;DHT22;19510;54.486;9.046;2023-03-19T06:29:27;9.90;99.90
16838;DHT22;19510;54.486;9.046;2023-03-19T06:31:53;9.90;99.90
16838;DHT22;19510;54.486;9.046;2023-03-19T06:34:20;9.90;99.90
16838;DHT22;19510;54.486;9.046;2023-03-19T06:36:46;9.90;99.90
16838;DHT22;19510;54.486;9.046;2023-03-19T06:39:11;9.90;99.90
16838;DHT22;19510;54.486;9.046;2023-03-19T06:41:37;9.90;99.90
16838;DHT22;19510;54.486;9.046;2023-03-19T06:44:03;9.90;99.90
16838;DHT22;19510;54.486;9.046;2023-03-19T06:46:29;10.00;99.90
16838;DHT22;19510;54.486;9.046;2023-03-19T06:48:58;10.00;99.90
16838;DHT22;19510;54.486;9.046;2023-03-19T06:51:24;10.00;99.90
16838;DHT22;19510;54.486;9.046;2023-03-19T06:53:52;10.00;99.90
16838;DHT22;19510;54.486;9.046;2023-03-19T06:56:18;10.00;99.90
16838;DHT22;19510;54.486;9.046;2023-03-19T06:58:45;10.00;99.90
16838;DHT22;19510;54.486;9.046;2023-03-19T07:01:10;10.00;99.90
16838;DHT22;19510;54.486;9.046;2023-03-19T07:03:36;10.10;99.90
16838;DHT22;19510;54.486;9.046;2023-03-19T07:06:02;10.10;99.90
16838;DHT22;19510;54.486;9.046;2023-03-19T07:08:29;10.10;99.90
16838;DHT22;19510;54.486;9.046;2023-03-19T07:11:02;10.10;99.90
16838;DHT22;19510;54.486;9.046;2023-03-19T07:13:31;10.10;99.90
16838;DHT22;19510;54.486;9.046;2023-03-19T07:15:58;10.00;99.90
16838;DHT22;19510;54.486;9.046;2023-03-19T07:18:24;10.00;99.90
16838;DHT22;19510;54.486;9.046;2023-03-19T07:20:50;10.10;99.90
16838;DHT22;19510;54.486;9.046;2023-03-19T07:23:17;10.10;99.90
16838;DHT22;19510;54.486;9.046;2023-03-19T07:25:45;10.10;99.90
16838;DHT22;19510;54.486;9.046;2023-03-19T07:28:12;10.10;99.90
16838;DHT22;19510;54.486;9.046;2023-03-19T07:30:38;10.10;99.90
16838;DHT22;19510;54.486;9.046;2023-03-19T07:33:05;10.10;99.90
16838;DHT22;19510;54.486;9.046;2023-03-19T07:35:32;10.20;99.90
16838;DHT22;19510;54.486;9.046;2023-03-19T07:37:58;10.10;99.90
16838;DHT22;19510;54.486;9.046;2023-03-19T07:40:25;10.10;99.90
16838;DHT22;19510;54.486;9.046;2023-03-19T07:42:51;10.20;99.90
16838;DHT22;19510;54.486;9.046;2023-03-19T07:45:17;10.40;99.90
16838;DHT22;19510;54.486;9.046;2023-03-19T07:47:43;10.40;99.90
16838;DHT22;19510;54.486;9.046;2023-03-19T07:50:09;10.60;99.90
16838;DHT22;19510;54.486;9.046;2023-03-19T07:52:35;10.80;99.90
16838;DHT22;19510;54.486;9.046;2023-03-19T07:55:01;10.80;99.90
16838;DHT22;19510;54.486;9.046;2023-03-19T07:57:30;10.90;99.90
16838;DHT22;19510;54.486;9.046;2023-03-19T07:59:57;11.00;99.90
16838;DHT22;19510;54.486;9.046;2023-03-19T08:02:23;11.00;99.90
16838;DHT22;19510;54.486;9.046;2023-03-19T08:04:48;11.10;99.90
16838;DHT22;19510;54.486;9.046;2023-03-19T08:07:16;11.10;99.90
16838;DHT22;19510;54.486;9.046;2023-03-19T08:09:42;11.10;99.90
16838;DHT22;19510;54.486;9.046;2023-03-19T08:12:08;11.10;99.90
16838;DHT22;19510;54.486;9.046;2023-03-19T08:14:35;11.10;99.90
16838;DHT22;19510;54.486;9.046;2023-03-19T08:17:00;11.10;99.90
16838;DHT22;19510;54.486;9.046;2023-03-19T08:19:26;11.00;99.90
16838;DHT22;19510;54.486;9.046;2023-03-19T08:21:55;10.90;99.90
16838;DHT22;19510;54.486;9.046;2023-03-19T08:24:21;10.90;99.90
16838;DHT22;19510;54.486;9.046;2023-03-19T08:26:46;10.90;99.90
16838;DHT22;19510;54.486;9.046;2023-03-19T08:29:27;10.90;99.90
16838;DHT22;19510;54.486;9.046;2023-03-19T08:31:56;10.90;99.90
16838;DHT22;19510;54.486;9.046;2023-03-19T08:34:25;10.90;99.90
16838;DHT22;19510;54.486;9.046;2023-03-19T08:36:51;11.00;99.90
16838;DHT22;19510;54.486;9.046;2023-03-19T08:39:19;11.00;99.90
16838;DHT22;19510;54.486;9.046;2023-03-19T08:41:45;11.10;99.90
16838;DHT22;19510;54.486;9.046;2023-03-19T08:44:13;11.10;99.90
16838;DHT22;19510;54.486;9.046;2023-03-19T08:46:40;11.10;99.90
16838;DHT22;19510;54.486;9.046;2023-03-19T08:49:06;11.20;99.90
16838;DHT22;19510;54.486;9.046;2023-03-19T08:51:32;11.30;99.90
16838;DHT22;19510;54.486;9.046;2023-03-19T08:53:58;11.30;99.90
16838;DHT22;19510;54.486;9.046;2023-03-19T08:56:26;11.40;99.90
16838;DHT22;19510;54.486;9.046;2023-03-19T08:58:52;11.50;99.90
16838;DHT22;19510;54.486;9.046;2023-03-19T09:01:20;11.60;99.90
16838;DHT22;19510;54.486;9.046;2023-03-19T09:03:45;11.60;99.90
16838;DHT22;19510;54.486;9.046;2023-03-19T09:06:12;11.70;99.90
16838;DHT22;19510;54.486;9.046;2023-03-19T09:08:41;11.80;99.90
16838;DHT22;19510;54.486;9.046;2023-03-19T09:11:08;11.80;99.90
16838;DHT22;19510;54.486;9.046;2023-03-19T09:13:35;11.80;99.90
16838;DHT22;19510;54.486;9.046;2023-03-19T09:16:02;11.80;99.90
16838;DHT22;19510;54.486;9.046;2023-03-19T09:18:30;11.90;99.90
16838;DHT22;19510;54.486;9.046;2023-03-19T09:20:55;11.90;99.90
16838;DHT22;19510;54.486;9.046;2023-03-19T09:23:21;11.90;99.90
16838;DHT22;19510;54.486;9.046;2023-03-19T09:25:47;11.90;99.90
16838;DHT22;19510;54.486;9.046;2023-03-19T09:28:13;11.90;99.90
16838;DHT22;19510;54.486;9.046;2023-03-19T09:30:39;12.00;99.90
16838;DHT22;19510;54.486;9.046;2023-03-19T09:33:08;12.00;99.90
16838;DHT22;19510;54.486;9.046;2023-03-19T09:35:34;12.10;99.90
16838;DHT22;19510;54.486;9.046;2023-03-19T09:38:00;12.20;99.90
16838;DHT22;19510;54.486;9.046;2023-03-19T09:40:32;12.20;99.90
16838;DHT22;19510;54.486;9.046;2023-03-19T09:49:46;12.30;99.90
16838;DHT22;19510;54.486;9.046;2023-03-19T09:52:29;12.40;99.90
16838;DHT22;19510;54.486;9.046;2023-03-19T09:54:59;12.40;99.90
16838;DHT22;19510;54.486;9.046;2023-03-19T09:57:27;12.40;99.90
16838;DHT22;19510;54.486;9.046;2023-03-19T09:59:56;12.50;99.90
16838;DHT22;19510;54.486;9.046;2023-03-19T10:02:40;12.50;99.90
16838;DHT22;19510;54.486;9.046;2023-03-19T10:08:11;12.60;99.90
16838;DHT22;19510;54.486;9.046;2023-03-19T10:14:21;12.80;99.90
16838;DHT22;19510;54.486;9.046;2023-03-19T10:16:27;12.70;99.90
16838;DHT22;19510;54.486;9.046;2023-03-19T10:19:02;12.70;99.90
16838;DHT22;19510;54.486;9.046;2023-03-19T10:22:04;12.70;99.90
16838;DHT22;19510;54.486;9.046;2023-03-19T10:24:40;12.60;99.90
16838;DHT22;19510;54.486;9.046;2023-03-19T10:27:16;12.50;99.90
16838;DHT22;19510;54.486;9.046;2023-03-19T10:29:42;12.50;99.90
16838;DHT22;19510;54.486;9.046;2023-03-19T10:32:17;12.50;99.90
16838;DHT22;19510;54.486;9.046;2023-03-19T10:34:50;12.50;99.90
16838;DHT22;19510;54.486;9.046;2023-03-19T10:37:28;12.50;99.90
16838;DHT22;19510;54.486;9.046;2023-03-19T10:39:57;12.50;99.90
16838;DHT22;19510;54.486;9.046;2023-03-19T10:42:52;12.50;99.90
16838;DHT22;19510;54.486;9.046;2023-03-19T10:45:30;12.50;99.90
16838;DHT22;19510;54.486;9.046;2023-03-19T10:47:58;12.50;99.90
16838;DHT22;19510;54.486;9.046;2023-03-19T10:50:37;12.50;99.90
16838;DHT22;19510;54.486;9.046;2023-03-19T10:53:36;12.50;99.90
16838;DHT22;19510;54.486;9.046;2023-03-19T10:56:21;12.50;99.90
16838;DHT22;19510;54.486;9.046;2023-03-19T10:59:03;12.50;99.90
16838;DHT22;19510;54.486;9.046;2023-03-19T11:01:38;12.50;99.90
16838;DHT22;19510;54.486;9.046;2023-03-19T11:04:13;12.50;99.90
16838;DHT22;19510;54.486;9.046;2023-03-19T11:06:39;12.40;99.90
16838;DHT22;19510;54.486;9.046;2023-03-19T11:11:41;12.40;99.90
16838;DHT22;19510;54.486;9.046;2023-03-19T11:19:26;12.50;99.90
16838;DHT22;19510;54.486;9.046;2023-03-19T11:24:39;12.60;99.90
16838;DHT22;19510;54.486;9.046;2023-03-19T11:27:07;12.50;99.90
16838;DHT22;19510;54.486;9.046;2023-03-19T11:29:40;12.50;99.90
16838;DHT22;19510;54.486;9.046;2023-03-19T11:35:23;12.60;99.90
16838;DHT22;19510;54.486;9.046;2023-03-19T11:38:01;12.70;99.90
16838;DHT22;19510;54.486;9.046;2023-03-19T11:40:54;12.70;99.90
16838;DHT22;19510;54.486;9.046;2023-03-19T11:43:34;12.90;99.90
16838;DHT22;19510;54.486;9.046;2023-03-19T12:00:50;12.90;99.90
16838;DHT22;19510;54.486;9.046;2023-03-19T12:05:59;12.90;99.90
16838;DHT22;19510;54.486;9.046;2023-03-19T12:29:55;12.80;99.90
16838;DHT22;19510;54.486;9.046;2023-03-19T12:35:16;12.70;99.90
16838;DHT22;19510;54.486;9.046;2023-03-19T12:40:58;12.80;99.90
16838;DHT22;19510;54.486;9.046;2023-03-19T12:43:27;12.80;99.90
16838;DHT22;19510;54.486;9.046;2023-03-19T12:46:06;12.80;99.90
16838;DHT22;19510;54.486;9.046;2023-03-19T12:48:45;12.70;99.90
16838;DHT22;19510;54.486;9.046;2023-03-19T12:51:16;12.70;99.90
16838;DHT22;19510;54.486;9.046;2023-03-19T12:53:53;12.60;99.90
16838;DHT22;19510;54.486;9.046;2023-03-19T13:01:51;12.20;99.90
16838;DHT22;19510;54.486;9.046;2023-03-19T13:04:30;12.20;99.90
16838;DHT22;19510;54.486;9.046;2023-03-19T13:07:19;12.10;99.90
16838;DHT22;19510;54.486;9.046;2023-03-19T13:10:12;12.10;99.90
16838;DHT22;19510;54.486;9.046;2023-03-19T13:12:44;12.10;99.90
16838;DHT22;19510;54.486;9.046;2023-03-19T13:18:16;12.30;99.90
16838;DHT22;19510;54.486;9.046;2023-03-19T13:21:13;12.30;99.90
16838;DHT22;19510;54.486;9.046;2023-03-19T13:23:49;12.40;99.90
16838;DHT22;19510;54.486;9.046;2023-03-19T13:26:17;12.50;99.90
16838;DHT22;19510;54.486;9.046;2023-03-19T13:29:00;12.60;99.90
16838;DHT22;19510;54.486;9.046;2023-03-19T13:31:33;12.70;99.90
16838;DHT22;19510;54.486;9.046;2023-03-19T13:34:16;13.00;99.90
16838;DHT22;19510;54.486;9.046;2023-03-19T13:37:16;13.30;99.90
16838;DHT22;19510;54.486;9.046;2023-03-19T13:39:46;13.50;99.90
16838;DHT22;19510;54.486;9.046;2023-03-19T13:42:54;13.80;99.90
16838;DHT22;19510;54.486;9.046;2023-03-19T13:45:37;14.00;99.90
16838;DHT22;19510;54.486;9.046;2023-03-19T13:59:30;13.70;99.90
16838;DHT22;19510;54.486;9.046;2023-03-19T14:02:46;13.60;99.90
16838;DHT22;19510;54.486;9.046;2023-03-19T14:05:00;13.60;99.90
16838;DHT22;19510;54.486;9.046;2023-03-19T14:07:35;13.40;99.90
16838;DHT22;19510;54.486;9.046;2023-03-19T14:10:16;13.10;99.90
16838;DHT22;19510;54.486;9.046;2023-03-19T14:12:45;13.00;99.90
16838;DHT22;19510;54.486;9.046;2023-03-19T14:15:21;13.00;99.90
16838;DHT22;19510;54.486;9.046;2023-03-19T14:18:00;13.20;99.90
16838;DHT22;19510;54.486;9.046;2023-03-19T14:21:09;13.40;99.90
16838;DHT22;19510;54.486;9.046;2023-03-19T14:23:29;13.60;99.90
16838;DHT22;19510;54.486;9.046;2023-03-19T14:26:16;13.50;99.90
16838;DHT22;19510;54.486;9.046;2023-03-19T14:28:51;13.30;99.90
16838;DHT22;19510;54.486;9.046;2023-03-19T14:37:25;13.30;99.90
16838;DHT22;19510;54.486;9.046;2023-03-19T14:40:22;13.30;99.90
16838;DHT22;19510;54.486;9.046;2023-03-19T14:45:41;13.20;99.90
16838;DHT22;19510;54.486;9.046;2023-03-19T14:50:57;13.30;99.90
16838;DHT22;19510;54.486;9.046;2023-03-19T14:56:24;13.00;99.90
16838;DHT22;19510;54.486;9.046;2023-03-19T14:58:54;12.80;99.90
16838;DHT22;19510;54.486;9.046;2023-03-19T15:01:23;12.70;99.90
16838;DHT22;19510;54.486;9.046;2023-03-19T15:03:58;12.50;99.90
16838;DHT22;19510;54.486;9.046;2023-03-19T15:06:24;12.40;99.90
16838;DHT22;19510;54.486;9.046;2023-03-19T15:08:59;12.30;99.90
16838;DHT22;19510;54.486;9.046;2023-03-19T15:11:34;12.30;99.90
16838;DHT22;19510;54.486;9.046;2023-03-19T15:17:05;12.30;99.90
16838;DHT22;19510;54.486;9.046;2023-03-19T15:19:34;12.20;99.90
16838;DHT22;19510;54.486;9.046;2023-03-19T15:22:24;11.90;99.90
16838;DHT22;19510;54.486;9.046;2023-03-19T15:24:50;11.60;99.90
16838;DHT22;19510;54.486;9.046;2023-03-19T15:27:24;11.40;99.90
16838;DHT22;19510;54.486;9.046;2023-03-19T15:29:53;11.00;99.90
16838;DHT22;19510;54.486;9.046;2023-03-19T15:32:38;10.80;99.90
16838;DHT22;19510;54.486;9.046;2023-03-19T15:35:09;10.70;99.90
16838;DHT22;19510;54.486;9.046;2023-03-19T15:37:43;10.60;99.90
16838;DHT22;19510;54.486;9.046;2023-03-19T15:40:18;10.50;99.90
16838;DHT22;19510;54.486;9.046;2023-03-19T15:42:46;10.40;99.90
16838;DHT22;19510;54.486;9.046;2023-03-19T15:45:18;10.30;99.90
16838;DHT22;19510;54.486;9.046;2023-03-19T15:47:51;10.20;99.90
16838;DHT22;19510;54.486;9.046;2023-03-19T15:50:22;10.00;99.90
16838;DHT22;19510;54.486;9.046;2023-03-19T15:53:02;10.00;99.90
16838;DHT22;19510;54.486;9.046;2023-03-19T15:55:32;9.90;99.90
16838;DHT22;19510;54.486;9.046;2023-03-19T15:58:06;9.80;99.90
16838;DHT22;19510;54.486;9.046;2023-03-19T16:00:35;9.80;99.90
16838;DHT22;19510;54.486;9.046;2023-03-19T16:03:06;9.80;99.90
16838;DHT22;19510;54.486;9.046;2023-03-19T16:05:32;9.70;99.90
16838;DHT22;19510;54.486;9.046;2023-03-19T16:08:20;9.70;99.90
16838;DHT22;19510;54.486;9.046;2023-03-19T16:10:49;9.70;99.90
16838;DHT22;19510;54.486;9.046;2023-03-19T16:19:53;9.50;99.90
16838;DHT22;19510;54.486;9.046;2023-03-19T16:22:28;9.50;99.90
16838;DHT22;19510;54.486;9.046;2023-03-19T16:24:55;9.50;99.90
16838;DHT22;19510;54.486;9.046;2023-03-19T16:27:37;9.40;99.90
16838;DHT22;19510;54.486;9.046;2023-03-19T16:32:45;9.40;99.90
16838;DHT22;19510;54.486;9.046;2023-03-19T16:35:17;9.50;99.90
16838;DHT22;19510;54.486;9.046;2023-03-19T16:37:49;9.40;99.90
16838;DHT22;19510;54.486;9.046;2023-03-19T16:42:54;9.40;99.90
16838;DHT22;19510;54.486;9.046;2023-03-19T16:45:31;9.30;99.90
16838;DHT22;19510;54.486;9.046;2023-03-19T16:48:01;9.30;99.90
16838;DHT22;19510;54.486;9.046;2023-03-19T16:53:02;9.20;99.90
16838;DHT22;19510;54.486;9.046;2023-03-19T16:55:34;9.10;99.90
16838;DHT22;19510;54.486;9.046;2023-03-19T16:58:02;9.10;99.90
16838;DHT22;19510;54.486;9.046;2023-03-19T17:00:30;9.00;99.90
16838;DHT22;19510;54.486;9.046;2023-03-19T17:03:02;8.90;99.90
16838;DHT22;19510;54.486;9.046;2023-03-19T17:05:32;9.00;99.90
16838;DHT22;19510;54.486;9.046;2023-03-19T17:07:58;8.90;99.90
16838;DHT22;19510;54.486;9.046;2023-03-19T17:10:27;8.90;99.90
16838;DHT22;19510;54.486;9.046;2023-03-19T17:12:55;8.90;99.90
16838;DHT22;19510;54.486;9.046;2023-03-19T17:15:27;8.80;99.90
16838;DHT22;19510;54.486;9.046;2023-03-19T17:17:54;8.70;99.90
16838;DHT22;19510;54.486;9.046;2023-03-19T17:20:28;8.70;99.90
16838;DHT22;19510;54.486;9.046;2023-03-19T17:22:56;8.70;99.90
16838;DHT22;19510;54.486;9.046;2023-03-19T17:25:22;8.70;99.90
16838;DHT22;19510;54.486;9.046;2023-03-19T17:27:51;8.70;99.90
16838;DHT22;19510;54.486;9.046;2023-03-19T17:30:17;8.80;99.90
16838;DHT22;19510;54.486;9.046;2023-03-19T17:32:45;8.80;99.90
16838;DHT22;19510;54.486;9.046;2023-03-19T17:35:17;8.80;99.90
16838;DHT22;19510;54.486;9.046;2023-03-19T17:37:44;8.70;99.90
16838;DHT22;19510;54.486;9.046;2023-03-19T17:40:19;8.70;99.90
16838;DHT22;19510;54.486;9.046;2023-03-19T17:42:46;8.70;99.90
16838;DHT22;19510;54.486;9.046;2023-03-19T17:45:15;8.70;99.90
16838;DHT22;19510;54.486;9.046;2023-03-19T17:47:43;8.70;99.90
16838;DHT22;19510;54.486;9.046;2023-03-19T17:50:19;8.70;99.90
16838;DHT22;19510;54.486;9.046;2023-03-19T17:52:46;8.70;99.90
16838;DHT22;19510;54.486;9.046;2023-03-19T17:55:23;8.80;99.90
16838;DHT22;19510;54.486;9.046;2023-03-19T17:57:50;8.80;99.90
16838;DHT22;19510;54.486;9.046;2023-03-19T18:00:17;8.90;99.90